Enter the Airport ICAO Code

Search by Airport or City

Current Weather

GCLA | La Palma Airport

La Palma, Canary Islands, Spain

Last Update 9 Minutes Ago

Light Rain

Temperature of 17 ºC

Light to Moderate Winds from North with Gusts

Temperature

17 ºC

Dew Point Temperature

15 ºC

Relative Humidity

88.07 %

Wind Direction

North (020º, Ranging from 330º to 100º)

Wind Velocity

11 km/h (06 kt)

Gusts

30 km/h (16 kt)

Visibility

Reduced to 8.0 Kilometers

Sea Level Pressure

1022 hPa (Hectopascals)

Layers of Clouds

30% to 60% of Sky Covered from 671 mts (2200 ft) Above Ground Level.

60% to 90% of Sky Covered from 914 mts (3000 ft) Above Ground Level.

60% to 90% of Sky Covered from 1311 mts (4300 ft) Above Ground Level.

METAR GCLA 052200Z AUTO 02006G16KT 330V100 8000 -RA SCT022 BKN030 BKN043 17/15 Q1022

Weather Forecast

GCLA | La Palma Airport

La Palma, Canary Islands, Spain

Forecast valid for the next 23 Hours

From now on it is expected:

Mostly Cloudy Sky

Moderate Winds from North

Maximum Temperature

21 ºC in 16 Hours

Minimum Temperature

16 ºC in 9 Hours

TAF GCLA 052000Z 0521/0621 36014KT 9999 BKN040 TX21/0614Z TN16/0607Z